Moscow, Russia
Current Conditions -  °F | °C
As of 2:30 PM on Friday 19 Dec 2014 (Local Time) from UUWW Reporting Station
Light Snow Light Snow  
Wind Chill: 23°   Ceiling: 700
Heat Index: 32°   Visibility: 1.5mi
Dew Point: 30°   Wind: 11mph
Humidity: 93%   Direction: 160°SSE
Pressure: 29.59"   Gusts: NA
Location:  55.75°N, 37.62°E
Report Text: UUWW 191130Z 16005MPS 2500 -SN OVC007 M00/M01 Q1002 19290050BECMG 1500 SN OVC004
Loading
Personal Weather Stations






























Interactive Weather Map New forecast layout! Learn more

10-Day Weather Forecast

Advertisements
Track Severe Weather on mobile